sensor_id;sensor_type;location;lat;lon;timestamp;pressure;altitude;pressure_sealevel;temperature;humidity
49393;BME280;35268;42.642;23.308;2023-03-15T00:01:39;92954.53;;;5.60;45.79
49393;BME280;35268;42.642;23.308;2023-03-15T00:04:04;92951.75;;;5.65;46.61
49393;BME280;35268;42.642;23.308;2023-03-15T00:06:31;92945.38;;;5.66;46.22
49393;BME280;35268;42.642;23.308;2023-03-15T00:09:00;92932.66;;;5.68;46.20
49393;BME280;35268;42.642;23.308;2023-03-15T00:11:27;92948.16;;;5.61;46.35
49393;BME280;35268;42.642;23.308;2023-03-15T00:13:55;92937.56;;;5.61;46.42
49393;BME280;35268;42.642;23.308;2023-03-15T00:16:20;92946.25;;;5.53;45.43
49393;BME280;35268;42.642;23.308;2023-03-15T00:18:46;92957.03;;;5.34;45.89
49393;BME280;35268;42.642;23.308;2023-03-15T00:21:12;92944.84;;;5.24;46.48
49393;BME280;35268;42.642;23.308;2023-03-15T00:23:38;92944.47;;;5.17;46.73
49393;BME280;35268;42.642;23.308;2023-03-15T00:26:03;92946.88;;;5.05;47.44
49393;BME280;35268;42.642;23.308;2023-03-15T00:28:29;92935.53;;;5.04;47.26
49393;BME280;35268;42.642;23.308;2023-03-15T00:31:13;92949.13;;;5.11;47.27
49393;BME280;35268;42.642;23.308;2023-03-15T00:33:39;92937.66;;;5.16;47.14
49393;BME280;35268;42.642;23.308;2023-03-15T00:36:07;92937.97;;;5.23;47.66
49393;BME280;35268;42.642;23.308;2023-03-15T00:38:34;92936.19;;;5.32;47.09
49393;BME280;35268;42.642;23.308;2023-03-15T00:41:08;92925.19;;;5.39;46.51
49393;BME280;35268;42.642;23.308;2023-03-15T00:43:35;92937.75;;;5.33;46.58
49393;BME280;35268;42.642;23.308;2023-03-15T00:46:01;92941.00;;;5.30;46.56
49393;BME280;35268;42.642;23.308;2023-03-15T00:48:26;92929.03;;;5.33;46.62
49393;BME280;35268;42.642;23.308;2023-03-15T00:51:22;92922.72;;;5.42;46.42
49393;BME280;35268;42.642;23.308;2023-03-15T00:53:49;92916.03;;;5.45;46.12
49393;BME280;35268;42.642;23.308;2023-03-15T00:56:23;92925.09;;;5.53;47.12
49393;BME280;35268;42.642;23.308;2023-03-15T00:58:50;92913.31;;;5.59;47.51
49393;BME280;35268;42.642;23.308;2023-03-15T01:01:24;92912.09;;;5.65;47.96
49393;BME280;35268;42.642;23.308;2023-03-15T01:03:50;92906.53;;;5.75;46.10
49393;BME280;35268;42.642;23.308;2023-03-15T01:06:18;92893.59;;;5.74;45.72
49393;BME280;35268;42.642;23.308;2023-03-15T01:08:44;92898.44;;;5.72;46.33
49393;BME280;35268;42.642;23.308;2023-03-15T01:11:15;92894.72;;;5.81;45.46
49393;BME280;35268;42.642;23.308;2023-03-15T01:13:40;92897.72;;;5.89;45.40
49393;BME280;35268;42.642;23.308;2023-03-15T01:16:08;92893.50;;;5.88;45.19
49393;BME280;35268;42.642;23.308;2023-03-15T01:18:33;92894.59;;;5.87;45.42
49393;BME280;35268;42.642;23.308;2023-03-15T01:20:59;92891.97;;;5.87;45.56
49393;BME280;35268;42.642;23.308;2023-03-15T01:23:25;92889.47;;;5.90;46.16
49393;BME280;35268;42.642;23.308;2023-03-15T01:25:50;92891.34;;;5.90;46.64
49393;BME280;35268;42.642;23.308;2023-03-15T01:28:16;92882.31;;;5.91;46.90
49393;BME280;35268;42.642;23.308;2023-03-15T01:30:51;92881.91;;;5.97;46.83
49393;BME280;35268;42.642;23.308;2023-03-15T01:33:17;92871.78;;;5.99;46.75
49393;BME280;35268;42.642;23.308;2023-03-15T01:35:43;92875.06;;;6.05;47.04
49393;BME280;35268;42.642;23.308;2023-03-15T01:38:08;92880.22;;;6.10;47.10
49393;BME280;35268;42.642;23.308;2023-03-15T01:40:34;92870.84;;;6.04;47.63
49393;BME280;35268;42.642;23.308;2023-03-15T01:48:46;92865.56;;;6.04;48.56
49393;BME280;35268;42.642;23.308;2023-03-15T01:51:22;92858.72;;;6.03;49.41
49393;BME280;35268;42.642;23.308;2023-03-15T01:56:48;92852.81;;;6.06;48.28
49393;BME280;35268;42.642;23.308;2023-03-15T01:59:20;92846.13;;;6.00;45.75
49393;BME280;35268;42.642;23.308;2023-03-15T02:01:46;92854.94;;;5.87;46.77
49393;BME280;35268;42.642;23.308;2023-03-15T02:04:17;92842.00;;;5.85;47.71
49393;BME280;35268;42.642;23.308;2023-03-15T02:06:49;92839.06;;;5.87;48.46
49393;BME280;35268;42.642;23.308;2023-03-15T02:09:17;92832.69;;;5.88;48.29
49393;BME280;35268;42.642;23.308;2023-03-15T02:11:43;92827.09;;;5.89;48.77
49393;BME280;35268;42.642;23.308;2023-03-15T02:14:11;92830.03;;;5.88;48.92
49393;BME280;35268;42.642;23.308;2023-03-15T02:16:37;92824.91;;;5.91;49.40
49393;BME280;35268;42.642;23.308;2023-03-15T02:19:05;92819.81;;;5.95;49.96
49393;BME280;35268;42.642;23.308;2023-03-15T02:21:58;92815.75;;;5.89;49.89
49393;BME280;35268;42.642;23.308;2023-03-15T02:25:09;92814.16;;;5.88;50.04
49393;BME280;35268;42.642;23.308;2023-03-15T02:27:30;92807.34;;;5.87;50.52
49393;BME280;35268;42.642;23.308;2023-03-15T02:29:56;92810.28;;;5.85;50.27
49393;BME280;35268;42.642;23.308;2023-03-15T02:32:22;92812.63;;;5.87;50.98
49393;BME280;35268;42.642;23.308;2023-03-15T02:34:48;92810.13;;;5.81;50.44
49393;BME280;35268;42.642;23.308;2023-03-15T02:37:13;92813.06;;;5.80;50.79
49393;BME280;35268;42.642;23.308;2023-03-15T02:39:38;92814.63;;;5.72;50.98
49393;BME280;35268;42.642;23.308;2023-03-15T02:42:04;92812.75;;;5.73;50.36
49393;BME280;35268;42.642;23.308;2023-03-15T02:44:35;92813.69;;;5.68;49.36
49393;BME280;35268;42.642;23.308;2023-03-15T02:47:12;92809.16;;;5.60;48.93
49393;BME280;35268;42.642;23.308;2023-03-15T02:49:42;92810.84;;;5.56;48.77
49393;BME280;35268;42.642;23.308;2023-03-15T02:52:09;92804.44;;;5.48;49.37
49393;BME280;35268;42.642;23.308;2023-03-15T02:54:36;92798.06;;;5.49;50.05
49393;BME280;35268;42.642;23.308;2023-03-15T02:57:03;92805.22;;;5.49;51.63
49393;BME280;35268;42.642;23.308;2023-03-15T02:59:29;92803.78;;;5.42;51.17
49393;BME280;35268;42.642;23.308;2023-03-15T03:01:55;92798.97;;;5.36;51.36
49393;BME280;35268;42.642;23.308;2023-03-15T03:04:20;92798.19;;;5.35;51.73
49393;BME280;35268;42.642;23.308;2023-03-15T03:06:46;92791.63;;;5.24;51.78
49393;BME280;35268;42.642;23.308;2023-03-15T03:09:11;92786.31;;;5.24;51.79
49393;BME280;35268;42.642;23.308;2023-03-15T03:11:37;92775.59;;;5.20;52.36
49393;BME280;35268;42.642;23.308;2023-03-15T03:14:03;92780.09;;;5.20;52.87
49393;BME280;35268;42.642;23.308;2023-03-15T03:16:29;92776.97;;;5.18;52.79
49393;BME280;35268;42.642;23.308;2023-03-15T03:18:56;92781.50;;;5.17;53.26
49393;BME280;35268;42.642;23.308;2023-03-15T03:21:21;92778.19;;;5.12;53.41
49393;BME280;35268;42.642;23.308;2023-03-15T03:23:47;92774.00;;;5.11;53.37
49393;BME280;35268;42.642;23.308;2023-03-15T03:26:14;92769.19;;;5.13;53.42
49393;BME280;35268;42.642;23.308;2023-03-15T03:28:42;92764.53;;;5.10;52.92
49393;BME280;35268;42.642;23.308;2023-03-15T03:31:18;92776.34;;;5.12;53.21
49393;BME280;35268;42.642;23.308;2023-03-15T03:33:44;92767.00;;;5.15;53.71
49393;BME280;35268;42.642;23.308;2023-03-15T03:36:09;92764.84;;;5.17;54.39
49393;BME280;35268;42.642;23.308;2023-03-15T03:38:40;92754.59;;;5.15;54.14
49393;BME280;35268;42.642;23.308;2023-03-15T03:41:07;92755.34;;;5.07;53.28
49393;BME280;35268;42.642;23.308;2023-03-15T03:43:32;92748.19;;;5.08;52.74
49393;BME280;35268;42.642;23.308;2023-03-15T03:45:58;92755.03;;;5.09;52.67
49393;BME280;35268;42.642;23.308;2023-03-15T03:48:23;92754.91;;;5.14;53.23
49393;BME280;35268;42.642;23.308;2023-03-15T03:50:49;92754.28;;;5.17;53.68
49393;BME280;35268;42.642;23.308;2023-03-15T03:53:14;92749.34;;;5.24;54.49
49393;BME280;35268;42.642;23.308;2023-03-15T03:55:40;92745.94;;;5.23;54.25
49393;BME280;35268;42.642;23.308;2023-03-15T03:58:07;92746.09;;;5.27;54.40
49393;BME280;35268;42.642;23.308;2023-03-15T04:00:32;92746.41;;;5.26;54.83
49393;BME280;35268;42.642;23.308;2023-03-15T04:02:58;92738.19;;;5.27;54.64
49393;BME280;35268;42.642;23.308;2023-03-15T04:05:23;92744.41;;;5.31;54.85
49393;BME280;35268;42.642;23.308;2023-03-15T04:07:49;92729.63;;;5.30;54.71
49393;BME280;35268;42.642;23.308;2023-03-15T04:10:15;92731.97;;;5.32;54.48
49393;BME280;35268;42.642;23.308;2023-03-15T04:12:41;92730.25;;;5.36;54.76
49393;BME280;35268;42.642;23.308;2023-03-15T04:15:08;92729.50;;;5.35;54.63
49393;BME280;35268;42.642;23.308;2023-03-15T04:17:36;92734.91;;;5.39;55.34
49393;BME280;35268;42.642;23.308;2023-03-15T04:20:01;92733.06;;;5.39;54.23
49393;BME280;35268;42.642;23.308;2023-03-15T04:22:31;92734.13;;;5.30;53.75
49393;BME280;35268;42.642;23.308;2023-03-15T04:24:59;92731.03;;;5.28;53.51
49393;BME280;35268;42.642;23.308;2023-03-15T04:27:27;92724.03;;;5.32;53.81
49393;BME280;35268;42.642;23.308;2023-03-15T04:29:52;92728.38;;;5.28;52.92
49393;BME280;35268;42.642;23.308;2023-03-15T04:32:18;92724.78;;;5.23;52.46
49393;BME280;35268;42.642;23.308;2023-03-15T04:34:43;92721.06;;;5.25;51.77
49393;BME280;35268;42.642;23.308;2023-03-15T04:37:09;92713.94;;;5.25;51.47
49393;BME280;35268;42.642;23.308;2023-03-15T04:39:34;92716.88;;;5.23;52.21
49393;BME280;35268;42.642;23.308;2023-03-15T04:42:00;92724.28;;;5.13;52.13
49393;BME280;35268;42.642;23.308;2023-03-15T04:44:25;92724.44;;;5.08;51.59
49393;BME280;35268;42.642;23.308;2023-03-15T04:46:53;92723.47;;;5.03;51.86
49393;BME280;35268;42.642;23.308;2023-03-15T04:49:18;92725.34;;;5.03;51.86
49393;BME280;35268;42.642;23.308;2023-03-15T04:51:44;92726.13;;;5.03;51.34
49393;BME280;35268;42.642;23.308;2023-03-15T04:54:09;92728.75;;;5.03;51.40
49393;BME280;35268;42.642;23.308;2023-03-15T04:56:34;92723.47;;;5.03;51.48
49393;BME280;35268;42.642;23.308;2023-03-15T04:59:01;92716.03;;;5.06;50.96
49393;BME280;35268;42.642;23.308;2023-03-15T05:01:29;92724.75;;;5.15;51.44
49393;BME280;35268;42.642;23.308;2023-03-15T05:03:55;92721.81;;;5.16;52.55
49393;BME280;35268;42.642;23.308;2023-03-15T05:06:21;92729.44;;;5.18;53.13
49393;BME280;35268;42.642;23.308;2023-03-15T05:08:47;92726.97;;;5.21;53.27
49393;BME280;35268;42.642;23.308;2023-03-15T05:11:12;92721.84;;;5.25;53.36
49393;BME280;35268;42.642;23.308;2023-03-15T05:13:38;92729.91;;;5.29;53.19
49393;BME280;35268;42.642;23.308;2023-03-15T05:16:03;92727.91;;;5.34;52.62
49393;BME280;35268;42.642;23.308;2023-03-15T05:18:29;92719.53;;;5.41;52.54
49393;BME280;35268;42.642;23.308;2023-03-15T05:20:54;92727.81;;;5.48;52.84
49393;BME280;35268;42.642;23.308;2023-03-15T05:23:21;92724.41;;;5.56;53.12
49393;BME280;35268;42.642;23.308;2023-03-15T05:25:51;92711.81;;;5.62;52.21
49393;BME280;35268;42.642;23.308;2023-03-15T05:28:19;92722.38;;;5.62;51.45
49393;BME280;35268;42.642;23.308;2023-03-15T05:30:45;92720.34;;;5.68;51.43
49393;BME280;35268;42.642;23.308;2023-03-15T05:33:11;92719.56;;;5.67;51.50
49393;BME280;35268;42.642;23.308;2023-03-15T05:35:36;92711.50;;;5.72;51.10
49393;BME280;35268;42.642;23.308;2023-03-15T05:38:02;92716.78;;;5.72;51.45
49393;BME280;35268;42.642;23.308;2023-03-15T05:40:28;92712.59;;;5.71;51.68
49393;BME280;35268;42.642;23.308;2023-03-15T05:42:55;92707.75;;;5.73;51.62
49393;BME280;35268;42.642;23.308;2023-03-15T05:45:20;92708.09;;;5.80;52.02
49393;BME280;35268;42.642;23.308;2023-03-15T05:47:46;92713.06;;;5.91;52.01
49393;BME280;35268;42.642;23.308;2023-03-15T05:50:11;92711.66;;;5.93;51.82
49393;BME280;35268;42.642;23.308;2023-03-15T05:52:37;92715.41;;;5.92;51.77
49393;BME280;35268;42.642;23.308;2023-03-15T05:55:05;92703.91;;;5.97;51.84
49393;BME280;35268;42.642;23.308;2023-03-15T05:57:30;92712.78;;;6.01;51.83
49393;BME280;35268;42.642;23.308;2023-03-15T05:59:56;92712.78;;;6.10;52.05
49393;BME280;35268;42.642;23.308;2023-03-15T06:02:21;92707.47;;;6.18;51.95
49393;BME280;35268;42.642;23.308;2023-03-15T06:04:47;92712.44;;;6.29;51.74
49393;BME280;35268;42.642;23.308;2023-03-15T06:07:12;92704.50;;;6.37;51.17
49393;BME280;35268;42.642;23.308;2023-03-15T06:09:37;92704.94;;;6.48;50.11
49393;BME280;35268;42.642;23.308;2023-03-15T06:12:03;92702.41;;;6.60;49.48
49393;BME280;35268;42.642;23.308;2023-03-15T06:14:29;92707.50;;;6.74;48.54
49393;BME280;35268;42.642;23.308;2023-03-15T06:16:54;92708.53;;;6.91;47.89
49393;BME280;35268;42.642;23.308;2023-03-15T06:19:20;92715.84;;;6.94;47.47
49393;BME280;35268;42.642;23.308;2023-03-15T06:21:46;92716.28;;;7.05;47.00
49393;BME280;35268;42.642;23.308;2023-03-15T06:24:12;92723.88;;;7.15;46.52
49393;BME280;35268;42.642;23.308;2023-03-15T06:26:37;92719.44;;;7.28;46.22
49393;BME280;35268;42.642;23.308;2023-03-15T06:29:03;92714.09;;;7.36;45.31
49393;BME280;35268;42.642;23.308;2023-03-15T06:31:28;92700.34;;;7.43;45.38
49393;BME280;35268;42.642;23.308;2023-03-15T06:33:54;92696.72;;;7.48;45.00
49393;BME280;35268;42.642;23.308;2023-03-15T06:36:19;92703.56;;;7.49;44.44
49393;BME280;35268;42.642;23.308;2023-03-15T06:38:45;92705.13;;;7.50;44.50
49393;BME280;35268;42.642;23.308;2023-03-15T06:41:10;92707.03;;;7.49;44.06
49393;BME280;35268;42.642;23.308;2023-03-15T06:43:39;92714.19;;;7.49;42.91
49393;BME280;35268;42.642;23.308;2023-03-15T06:46:04;92702.22;;;7.42;42.85
49393;BME280;35268;42.642;23.308;2023-03-15T06:48:30;92710.97;;;7.43;43.19
49393;BME280;35268;42.642;23.308;2023-03-15T06:50:55;92711.66;;;7.52;43.13
49393;BME280;35268;42.642;23.308;2023-03-15T06:53:21;92715.63;;;7.67;42.97
49393;BME280;35268;42.642;23.308;2023-03-15T06:55:46;92698.69;;;7.80;42.71
49393;BME280;35268;42.642;23.308;2023-03-15T06:58:12;92692.38;;;7.94;42.67
49393;BME280;35268;42.642;23.308;2023-03-15T07:00:38;92692.47;;;7.97;42.47
49393;BME280;35268;42.642;23.308;2023-03-15T07:03:04;92699.72;;;8.09;42.28
49393;BME280;35268;42.642;23.308;2023-03-15T07:05:29;92698.22;;;8.20;41.87
49393;BME280;35268;42.642;23.308;2023-03-15T07:07:56;92685.00;;;8.33;41.98
49393;BME280;35268;42.642;23.308;2023-03-15T07:10:21;92687.59;;;8.41;40.95
49393;BME280;35268;42.642;23.308;2023-03-15T07:12:47;92678.00;;;8.49;40.56
49393;BME280;35268;42.642;23.308;2023-03-15T07:15:12;92687.06;;;8.48;40.92
49393;BME280;35268;42.642;23.308;2023-03-15T07:17:38;92674.91;;;8.59;41.23
49393;BME280;35268;42.642;23.308;2023-03-15T07:20:03;92689.88;;;8.76;40.99
49393;BME280;35268;42.642;23.308;2023-03-15T07:22:31;92691.91;;;8.92;40.96
49393;BME280;35268;42.642;23.308;2023-03-15T07:24:56;92697.13;;;9.13;40.26
49393;BME280;35268;42.642;23.308;2023-03-15T07:27:22;92692.38;;;9.18;40.06
49393;BME280;35268;42.642;23.308;2023-03-15T07:29:47;92684.72;;;9.29;40.17
49393;BME280;35268;42.642;23.308;2023-03-15T07:32:13;92679.41;;;9.29;39.16
49393;BME280;35268;42.642;23.308;2023-03-15T07:34:38;92675.72;;;9.46;39.78
49393;BME280;35268;42.642;23.308;2023-03-15T07:37:04;92687.59;;;9.49;38.77
49393;BME280;35268;42.642;23.308;2023-03-15T07:39:29;92677.91;;;9.56;39.12
49393;BME280;35268;42.642;23.308;2023-03-15T07:41:57;92684.03;;;9.57;39.94
49393;BME280;35268;42.642;23.308;2023-03-15T07:44:23;92687.63;;;9.77;39.41
49393;BME280;35268;42.642;23.308;2023-03-15T07:46:48;92676.63;;;9.91;37.98
49393;BME280;35268;42.642;23.308;2023-03-15T07:49:14;92680.16;;;9.95;37.22
49393;BME280;35268;42.642;23.308;2023-03-15T07:51:39;92671.28;;;10.03;37.82
49393;BME280;35268;42.642;23.308;2023-03-15T07:54:06;92668.06;;;10.10;37.82
49393;BME280;35268;42.642;23.308;2023-03-15T07:56:31;92669.69;;;10.14;36.77
49393;BME280;35268;42.642;23.308;2023-03-15T07:58:57;92675.47;;;10.16;36.42
49393;BME280;35268;42.642;23.308;2023-03-15T08:01:22;92677.53;;;10.23;36.91
49393;BME280;35268;42.642;23.308;2023-03-15T08:03:48;92662.06;;;10.41;36.74
49393;BME280;35268;42.642;23.308;2023-03-15T08:06:13;92678.53;;;10.59;36.17
49393;BME280;35268;42.642;23.308;2023-03-15T08:08:38;92667.25;;;10.66;35.42
49393;BME280;35268;42.642;23.308;2023-03-15T08:11:05;92677.84;;;10.78;35.84
49393;BME280;35268;42.642;23.308;2023-03-15T08:13:30;92668.75;;;10.79;35.07
49393;BME280;35268;42.642;23.308;2023-03-15T08:15:56;92662.13;;;10.73;35.68
49393;BME280;35268;42.642;23.308;2023-03-15T08:18:21;92647.03;;;10.49;36.07
49393;BME280;35268;42.642;23.308;2023-03-15T08:20:47;92646.03;;;10.69;36.33
49393;BME280;35268;42.642;23.308;2023-03-15T08:23:12;92649.09;;;10.55;36.67
49393;BME280;35268;42.642;23.308;2023-03-15T08:25:42;92657.38;;;10.82;35.95
49393;BME280;35268;42.642;23.308;2023-03-15T08:28:08;92650.78;;;11.08;35.51
49393;BME280;35268;42.642;23.308;2023-03-15T08:30:34;92645.00;;;11.21;34.92
49393;BME280;35268;42.642;23.308;2023-03-15T08:32:59;92649.72;;;11.28;34.67
49393;BME280;35268;42.642;23.308;2023-03-15T08:35:24;92645.94;;;11.13;34.31
49393;BME280;35268;42.642;23.308;2023-03-15T08:37:50;92643.22;;;11.10;34.33
49393;BME280;35268;42.642;23.308;2023-03-15T08:40:18;92647.31;;;11.07;34.68
49393;BME280;35268;42.642;23.308;2023-03-15T08:42:50;92640.13;;;11.08;34.30
49393;BME280;35268;42.642;23.308;2023-03-15T08:45:17;92633.59;;;10.89;34.64
49393;BME280;35268;42.642;23.308;2023-03-15T08:47:42;92637.25;;;10.84;35.53
49393;BME280;35268;42.642;23.308;2023-03-15T08:50:10;92643.13;;;11.06;34.56
49393;BME280;35268;42.642;23.308;2023-03-15T08:52:37;92646.88;;;11.21;34.67
49393;BME280;35268;42.642;23.308;2023-03-15T08:55:02;92648.25;;;11.31;33.92
49393;BME280;35268;42.642;23.308;2023-03-15T08:57:29;92660.81;;;11.30;34.25
49393;BME280;35268;42.642;23.308;2023-03-15T09:00:00;92660.31;;;11.24;34.21
49393;BME280;35268;42.642;23.308;2023-03-15T09:02:31;92666.84;;;11.27;34.50
49393;BME280;35268;42.642;23.308;2023-03-15T09:04:56;92649.19;;;11.38;34.64
49393;BME280;35268;42.642;23.308;2023-03-15T09:07:22;92653.38;;;11.55;34.70
49393;BME280;35268;42.642;23.308;2023-03-15T09:09:47;92654.59;;;11.77;34.62
49393;BME280;35268;42.642;23.308;2023-03-15T09:12:16;92655.88;;;11.83;33.94
49393;BME280;35268;42.642;23.308;2023-03-15T09:14:42;92653.09;;;11.96;33.83
49393;BME280;35268;42.642;23.308;2023-03-15T09:17:08;92644.53;;;12.06;33.78
49393;BME280;35268;42.642;23.308;2023-03-15T09:19:33;92651.56;;;12.14;33.83
49393;BME280;35268;42.642;23.308;2023-03-15T09:21:59;92646.38;;;12.21;33.73
49393;BME280;35268;42.642;23.308;2023-03-15T09:24:24;92653.81;;;12.32;33.81
49393;BME280;35268;42.642;23.308;2023-03-15T09:26:50;92665.75;;;12.38;33.64
49393;BME280;35268;42.642;23.308;2023-03-15T09:29:15;92650.16;;;12.40;33.34
49393;BME280;35268;42.642;23.308;2023-03-15T09:31:41;92653.66;;;12.44;33.60
49393;BME280;35268;42.642;23.308;2023-03-15T09:34:06;92641.97;;;12.52;33.72
49393;BME280;35268;42.642;23.308;2023-03-15T09:36:32;92642.56;;;12.65;33.73
49393;BME280;35268;42.642;23.308;2023-03-15T09:38:59;92637.41;;;12.76;33.06
49393;BME280;35268;42.642;23.308;2023-03-15T09:41:42;92629.09;;;12.81;32.83
49393;BME280;35268;42.642;23.308;2023-03-15T09:49:33;92625.28;;;12.82;32.39
49393;BME280;35268;42.642;23.308;2023-03-15T09:57:05;92610.03;;;12.82;33.21
49393;BME280;35268;42.642;23.308;2023-03-15T09:59:39;92609.31;;;12.85;32.81
49393;BME280;35268;42.642;23.308;2023-03-15T10:02:20;92615.59;;;12.74;32.16
49393;BME280;35268;42.642;23.308;2023-03-15T10:04:48;92626.00;;;12.56;32.60
49393;BME280;35268;42.642;23.308;2023-03-15T10:07:15;92626.78;;;12.56;33.06
49393;BME280;35268;42.642;23.308;2023-03-15T10:09:41;92621.84;;;12.58;33.86
49393;BME280;35268;42.642;23.308;2023-03-15T10:12:15;92624.34;;;12.71;33.98
49393;BME280;35268;42.642;23.308;2023-03-15T10:14:57;92616.84;;;12.80;33.43
49393;BME280;35268;42.642;23.308;2023-03-15T10:20:11;92622.38;;;13.14;32.96
49393;BME280;35268;42.642;23.308;2023-03-15T10:22:48;92617.72;;;13.34;32.80
49393;BME280;35268;42.642;23.308;2023-03-15T10:25:20;92617.19;;;13.48;32.12
49393;BME280;35268;42.642;23.308;2023-03-15T10:28:03;92626.88;;;13.59;31.53
49393;BME280;35268;42.642;23.308;2023-03-15T10:30:33;92614.72;;;13.65;31.95
49393;BME280;35268;42.642;23.308;2023-03-15T10:33:02;92608.25;;;13.67;31.47
49393;BME280;35268;42.642;23.308;2023-03-15T10:35:30;92604.06;;;13.69;31.85
49393;BME280;35268;42.642;23.308;2023-03-15T10:37:56;92622.03;;;13.69;32.01
49393;BME280;35268;42.642;23.308;2023-03-15T10:40:42;92623.44;;;13.59;32.41
49393;BME280;35268;42.642;23.308;2023-03-15T10:43:29;92625.66;;;13.53;32.64
49393;BME280;35268;42.642;23.308;2023-03-15T10:46:21;92620.16;;;13.42;32.52
49393;BME280;35268;42.642;23.308;2023-03-15T10:49:10;92616.19;;;13.33;32.61
49393;BME280;35268;42.642;23.308;2023-03-15T10:51:46;92619.41;;;13.19;32.42
49393;BME280;35268;42.642;23.308;2023-03-15T10:56:46;92624.81;;;12.99;32.86
49393;BME280;35268;42.642;23.308;2023-03-15T10:59:21;92614.41;;;12.94;33.18
49393;BME280;35268;42.642;23.308;2023-03-15T11:01:54;92608.22;;;12.90;33.24
49393;BME280;35268;42.642;23.308;2023-03-15T11:04:32;92609.38;;;12.89;33.03
49393;BME280;35268;42.642;23.308;2023-03-15T11:07:02;92611.63;;;12.87;33.26
49393;BME280;35268;42.642;23.308;2023-03-15T11:09:40;92603.19;;;12.85;33.09
49393;BME280;35268;42.642;23.308;2023-03-15T11:12:09;92607.00;;;12.84;33.34
49393;BME280;35268;42.642;23.308;2023-03-15T11:14:47;92601.63;;;12.84;33.57
49393;BME280;35268;42.642;23.308;2023-03-15T11:17:21;92596.28;;;12.84;33.14
49393;BME280;35268;42.642;23.308;2023-03-15T11:19:59;92598.44;;;12.75;33.37
49393;BME280;35268;42.642;23.308;2023-03-15T11:22:34;92601.38;;;12.66;33.50
49393;BME280;35268;42.642;23.308;2023-03-15T11:24:59;92595.97;;;12.62;33.39
49393;BME280;35268;42.642;23.308;2023-03-15T11:27:25;92609.59;;;12.57;32.99
49393;BME280;35268;42.642;23.308;2023-03-15T11:29:56;92611.03;;;12.51;32.91
49393;BME280;35268;42.642;23.308;2023-03-15T11:32:30;92609.50;;;12.50;33.55
49393;BME280;35268;42.642;23.308;2023-03-15T11:35:03;92598.66;;;12.43;33.51
49393;BME280;35268;42.642;23.308;2023-03-15T11:40:21;92588.22;;;11.76;36.15
49393;BME280;35268;42.642;23.308;2023-03-15T11:43:00;92592.34;;;11.54;37.15
49393;BME280;35268;42.642;23.308;2023-03-15T11:50:46;92586.38;;;11.25;37.16
49393;BME280;35268;42.642;23.308;2023-03-15T11:53:14;92590.72;;;11.14;37.01
49393;BME280;35268;42.642;23.308;2023-03-15T11:55:47;92597.34;;;11.04;37.75
49393;BME280;35268;42.642;23.308;2023-03-15T11:58:41;92593.22;;;11.07;38.05
49393;BME280;35268;42.642;23.308;2023-03-15T12:01:10;92590.41;;;10.99;38.42
49393;BME280;35268;42.642;23.308;2023-03-15T12:03:48;92597.88;;;10.94;38.55
49393;BME280;35268;42.642;23.308;2023-03-15T12:08:50;92590.06;;;10.85;40.72
49393;BME280;35268;42.642;23.308;2023-03-15T12:16:31;92567.91;;;10.49;42.02
49393;BME280;35268;42.642;23.308;2023-03-15T12:19:02;92566.94;;;10.41;41.43
49393;BME280;35268;42.642;23.308;2023-03-15T12:21:37;92566.41;;;10.36;40.82
49393;BME280;35268;42.642;23.308;2023-03-15T12:24:05;92559.13;;;10.33;40.71
49393;BME280;35268;42.642;23.308;2023-03-15T12:26:59;92561.13;;;10.23;41.73
49393;BME280;35268;42.642;23.308;2023-03-15T12:29:28;92574.34;;;10.32;41.48
49393;BME280;35268;42.642;23.308;2023-03-15T12:34:50;92564.06;;;10.18;43.50
49393;BME280;35268;42.642;23.308;2023-03-15T12:37:37;92555.38;;;10.06;43.53
49393;BME280;35268;42.642;23.308;2023-03-15T12:50:48;92556.19;;;9.94;44.44
49393;BME280;35268;42.642;23.308;2023-03-15T12:53:22;92556.19;;;9.94;44.55
49393;BME280;35268;42.642;23.308;2023-03-15T12:55:52;92554.56;;;10.05;44.22
49393;BME280;35268;42.642;23.308;2023-03-15T12:58:21;92546.25;;;10.07;43.73
49393;BME280;35268;42.642;23.308;2023-03-15T13:00:50;92554.06;;;10.15;42.90
49393;BME280;35268;42.642;23.308;2023-03-15T13:03:22;92549.38;;;10.24;42.77
49393;BME280;35268;42.642;23.308;2023-03-15T13:06:25;92554.66;;;10.37;41.98
49393;BME280;35268;42.642;23.308;2023-03-15T13:14:24;92539.53;;;10.73;40.84
49393;BME280;35268;42.642;23.308;2023-03-15T13:17:12;92533.25;;;10.81;40.08
49393;BME280;35268;42.642;23.308;2023-03-15T13:19:44;92541.38;;;10.88;39.88
49393;BME280;35268;42.642;23.308;2023-03-15T13:22:25;92534.84;;;11.01;40.02
49393;BME280;35268;42.642;23.308;2023-03-15T13:25:12;92536.09;;;11.23;40.24
49393;BME280;35268;42.642;23.308;2023-03-15T13:30:35;92549.22;;;11.52;39.25
49393;BME280;35268;42.642;23.308;2023-03-15T13:33:27;92550.06;;;11.56;39.06
49393;BME280;35268;42.642;23.308;2023-03-15T13:36:17;92555.41;;;11.56;38.52
49393;BME280;35268;42.642;23.308;2023-03-15T13:38:44;92562.41;;;11.64;38.46
49393;BME280;35268;42.642;23.308;2023-03-15T13:43:48;92545.00;;;11.70;38.41
49393;BME280;35268;42.642;23.308;2023-03-15T13:46:17;92545.66;;;11.83;38.20
49393;BME280;35268;42.642;23.308;2023-03-15T13:48:45;92540.47;;;11.90;37.96
49393;BME280;35268;42.642;23.308;2023-03-15T13:51:18;92551.41;;;12.04;37.98
49393;BME280;35268;42.642;23.308;2023-03-15T13:53:46;92542.53;;;12.20;37.80
49393;BME280;35268;42.642;23.308;2023-03-15T13:56:24;92554.13;;;12.28;36.92
49393;BME280;35268;42.642;23.308;2023-03-15T13:58:51;92555.81;;;12.36;36.93
49393;BME280;35268;42.642;23.308;2023-03-15T14:01:17;92558.16;;;12.41;36.89
49393;BME280;35268;42.642;23.308;2023-03-15T14:03:47;92554.84;;;12.48;36.47
49393;BME280;35268;42.642;23.308;2023-03-15T14:06:21;92553.78;;;12.52;35.86
49393;BME280;35268;42.642;23.308;2023-03-15T14:08:48;92546.88;;;12.51;35.78